sensor_id;sensor_type;location;lat;lon;timestamp;pressure;altitude;pressure_sealevel;temperature;humidity
76478;BME280;65309;49.790;18.972;2023-11-19T00:00:22;60238.88;;;-145.46;100.00
76478;BME280;65309;49.790;18.972;2023-11-19T00:05:45;60243.09;;;-145.46;100.00
76478;BME280;65309;49.790;18.972;2023-11-19T00:10:49;60238.88;;;-145.46;100.00
76478;BME280;65309;49.790;18.972;2023-11-19T00:15:52;60226.28;;;-145.46;100.00
76478;BME280;65309;49.790;18.972;2023-11-19T00:20:54;60228.38;;;-145.46;100.00
76478;BME280;65309;49.790;18.972;2023-11-19T00:25:58;60255.72;;;-145.46;100.00
76478;BME280;65309;49.790;18.972;2023-11-19T00:31:00;60255.72;;;-145.46;100.00
76478;BME280;65309;49.790;18.972;2023-11-19T00:36:03;60205.25;;;-145.46;100.00
76478;BME280;65309;49.790;18.972;2023-11-19T00:41:07;60234.69;;;-145.46;100.00
76478;BME280;65309;49.790;18.972;2023-11-19T00:46:09;60207.34;;;-145.46;100.00
76478;BME280;65309;49.790;18.972;2023-11-19T00:51:13;60222.06;;;-145.46;100.00
76478;BME280;65309;49.790;18.972;2023-11-19T00:56:17;60251.50;;;-145.46;100.00
76478;BME280;65309;49.790;18.972;2023-11-19T01:01:19;60205.25;;;-145.46;100.00
76478;BME280;65309;49.790;18.972;2023-11-19T01:06:32;60196.84;;;-145.46;100.00
76478;BME280;65309;49.790;18.972;2023-11-19T01:11:35;60230.47;;;-145.46;100.00
76478;BME280;65309;49.790;18.972;2023-11-19T01:16:37;60196.84;;;-145.46;100.00
76478;BME280;65309;49.790;18.972;2023-11-19T01:21:40;60243.09;;;-145.46;100.00
76478;BME280;65309;49.790;18.972;2023-11-19T01:26:44;60241.00;;;-145.46;100.00
76478;BME280;65309;49.790;18.972;2023-11-19T01:31:49;60215.75;;;-145.46;100.00
76478;BME280;65309;49.790;18.972;2023-11-19T01:36:53;60247.31;;;-145.46;100.00
76478;BME280;65309;49.790;18.972;2023-11-19T01:41:57;60198.94;;;-145.46;100.00
76478;BME280;65309;49.790;18.972;2023-11-19T01:46:59;60226.28;;;-145.46;100.00
76478;BME280;65309;49.790;18.972;2023-11-19T01:52:03;60226.28;;;-145.46;100.00
76478;BME280;65309;49.790;18.972;2023-11-19T01:57:06;60245.19;;;-145.46;100.00
76478;BME280;65309;49.790;18.972;2023-11-19T02:02:09;60266.22;;;-145.46;100.00
76478;BME280;65309;49.790;18.972;2023-11-19T02:07:11;60201.06;;;-145.46;100.00
76478;BME280;65309;49.790;18.972;2023-11-19T02:12:15;60238.88;;;-145.46;100.00
76478;BME280;65309;49.790;18.972;2023-11-19T02:17:26;60205.25;;;-145.46;100.00
76478;BME280;65309;49.790;18.972;2023-11-19T02:22:29;60247.31;;;-145.46;100.00
76478;BME280;65309;49.790;18.972;2023-11-19T02:27:43;60217.88;;;-145.46;100.00
76478;BME280;65309;49.790;18.972;2023-11-19T02:32:46;60226.28;;;-145.46;100.00
76478;BME280;65309;49.790;18.972;2023-11-19T02:37:50;60238.88;;;-145.46;100.00
76478;BME280;65309;49.790;18.972;2023-11-19T02:42:54;60249.41;;;-145.46;100.00
76478;BME280;65309;49.790;18.972;2023-11-19T02:47:58;60234.69;;;-145.46;100.00
76478;BME280;65309;49.790;18.972;2023-11-19T02:53:03;60236.78;;;-145.46;100.00
76478;BME280;65309;49.790;18.972;2023-11-19T02:58:07;60238.88;;;-145.46;100.00
76478;BME280;65309;49.790;18.972;2023-11-19T03:03:22;60215.75;;;-145.46;100.00
76478;BME280;65309;49.790;18.972;2023-11-19T03:08:28;60259.91;;;-145.46;100.00
76478;BME280;65309;49.790;18.972;2023-11-19T03:13:33;60207.34;;;-145.46;100.00
76478;BME280;65309;49.790;18.972;2023-11-19T03:18:35;60247.31;;;-145.46;100.00
76478;BME280;65309;49.790;18.972;2023-11-19T03:23:37;60253.59;;;-145.46;100.00
76478;BME280;65309;49.790;18.972;2023-11-19T03:28:41;60201.06;;;-145.46;100.00
76478;BME280;65309;49.790;18.972;2023-11-19T03:33:43;60243.09;;;-145.46;100.00
76478;BME280;65309;49.790;18.972;2023-11-19T03:38:45;60253.59;;;-145.46;100.00
76478;BME280;65309;49.790;18.972;2023-11-19T03:43:49;60257.81;;;-145.46;100.00
76478;BME280;65309;49.790;18.972;2023-11-19T03:48:52;60238.88;;;-145.46;100.00
76478;BME280;65309;49.790;18.972;2023-11-19T03:53:54;60228.38;;;-145.46;100.00
76478;BME280;65309;49.790;18.972;2023-11-19T03:58:57;60243.09;;;-145.46;100.00
76478;BME280;65309;49.790;18.972;2023-11-19T04:03:59;60238.88;;;-145.46;100.00
76478;BME280;65309;49.790;18.972;2023-11-19T04:09:02;60243.09;;;-145.46;100.00
76478;BME280;65309;49.790;18.972;2023-11-19T04:14:06;60217.88;;;-145.46;100.00
76478;BME280;65309;49.790;18.972;2023-11-19T04:19:08;60209.47;;;-145.46;100.00
76478;BME280;65309;49.790;18.972;2023-11-19T04:24:10;60226.28;;;-145.46;100.00
76478;BME280;65309;49.790;18.972;2023-11-19T04:29:17;60234.69;;;-145.46;100.00
76478;BME280;65309;49.790;18.972;2023-11-19T04:34:20;60222.06;;;-145.46;100.00
76478;BME280;65309;49.790;18.972;2023-11-19T04:39:22;60255.72;;;-145.46;100.00
76478;BME280;65309;49.790;18.972;2023-11-19T04:44:25;60184.22;;;-145.46;100.00
76478;BME280;65309;49.790;18.972;2023-11-19T04:49:28;60209.47;;;-145.46;100.00
76478;BME280;65309;49.790;18.972;2023-11-19T04:54:30;60268.31;;;-145.46;100.00
76478;BME280;65309;49.790;18.972;2023-11-19T04:59:35;60209.47;;;-145.46;100.00
76478;BME280;65309;49.790;18.972;2023-11-19T05:04:37;60234.69;;;-145.46;100.00
76478;BME280;65309;49.790;18.972;2023-11-19T05:09:40;60190.53;;;-145.46;100.00
76478;BME280;65309;49.790;18.972;2023-11-19T05:14:44;60234.69;;;-145.46;100.00
76478;BME280;65309;49.790;18.972;2023-11-19T05:19:51;60217.88;;;-145.46;100.00
76478;BME280;65309;49.790;18.972;2023-11-19T05:24:53;60264.13;;;-145.46;100.00
76478;BME280;65309;49.790;18.972;2023-11-19T05:29:57;60241.00;;;-145.46;100.00
76478;BME280;65309;49.790;18.972;2023-11-19T05:35:00;60175.81;;;-145.46;100.00
76478;BME280;65309;49.790;18.972;2023-11-19T05:40:02;60211.56;;;-145.46;100.00
76478;BME280;65309;49.790;18.972;2023-11-19T05:45:10;60226.28;;;-145.46;100.00
76478;BME280;65309;49.790;18.972;2023-11-19T05:50:14;60243.09;;;-145.46;100.00
76478;BME280;65309;49.790;18.972;2023-11-19T05:55:16;60268.31;;;-145.46;100.00
76478;BME280;65309;49.790;18.972;2023-11-19T06:00:20;60203.16;;;-145.46;100.00
76478;BME280;65309;49.790;18.972;2023-11-19T06:05:22;60196.84;;;-145.46;100.00
76478;BME280;65309;49.790;18.972;2023-11-19T06:10:24;60222.06;;;-145.46;100.00
76478;BME280;65309;49.790;18.972;2023-11-19T06:15:34;60226.28;;;-145.46;99.95
76478;BME280;65309;49.790;18.972;2023-11-19T06:20:36;60245.19;;;-145.46;99.82
76478;BME280;65309;49.790;18.972;2023-11-19T06:25:41;60251.50;;;-145.46;98.14
76478;BME280;65309;49.790;18.972;2023-11-19T06:30:45;60249.41;;;-145.46;97.30
76478;BME280;65309;49.790;18.972;2023-11-19T06:35:50;60205.25;;;-145.46;96.01
76478;BME280;65309;49.790;18.972;2023-11-19T06:40:52;60213.66;;;-145.46;93.99
76478;BME280;65309;49.790;18.972;2023-11-19T06:45:57;60228.38;;;-145.46;92.38
76478;BME280;65309;49.790;18.972;2023-11-19T06:51:00;60255.72;;;-145.46;91.38
76478;BME280;65309;49.790;18.972;2023-11-19T06:56:02;60186.34;;;-145.46;90.86
76478;BME280;65309;49.790;18.972;2023-11-19T07:01:09;60268.31;;;-145.46;90.19
76478;BME280;65309;49.790;18.972;2023-11-19T07:06:13;60243.09;;;-145.46;90.74
76478;BME280;65309;49.790;18.972;2023-11-19T07:11:16;60241.00;;;-145.46;89.12
76478;BME280;65309;49.790;18.972;2023-11-19T07:16:20;60222.06;;;-145.46;89.26
76478;BME280;65309;49.790;18.972;2023-11-19T07:21:23;60247.31;;;-145.46;89.37
76478;BME280;65309;49.790;18.972;2023-11-19T07:26:26;60262.00;;;-145.46;89.86
76478;BME280;65309;49.790;18.972;2023-11-19T07:31:30;60188.44;;;-145.46;88.90
76478;BME280;65309;49.790;18.972;2023-11-19T07:36:32;60175.81;;;-145.46;87.74
76478;BME280;65309;49.790;18.972;2023-11-19T07:41:34;60245.19;;;-145.46;84.79
76478;BME280;65309;49.790;18.972;2023-11-19T07:46:38;60219.97;;;-145.46;82.78
76478;BME280;65309;49.790;18.972;2023-11-19T07:51:41;60201.06;;;-145.46;80.95
76478;BME280;65309;49.790;18.972;2023-11-19T07:56:43;60238.88;;;-145.46;80.85
76478;BME280;65309;49.790;18.972;2023-11-19T08:01:47;60222.06;;;-145.46;80.38
76478;BME280;65309;49.790;18.972;2023-11-19T08:06:50;60243.09;;;-145.46;78.65
76478;BME280;65309;49.790;18.972;2023-11-19T08:11:52;60228.38;;;-145.46;77.14
76478;BME280;65309;49.790;18.972;2023-11-19T08:16:56;60213.66;;;-145.46;76.07
76478;BME280;65309;49.790;18.972;2023-11-19T08:21:58;60215.75;;;-145.46;75.33
76478;BME280;65309;49.790;18.972;2023-11-19T08:27:00;60228.38;;;-145.46;75.78
76478;BME280;65309;49.790;18.972;2023-11-19T08:32:06;60207.34;;;-145.46;74.36
76478;BME280;65309;49.790;18.972;2023-11-19T08:37:09;60217.88;;;-145.46;75.52
76478;BME280;65309;49.790;18.972;2023-11-19T08:42:11;60177.94;;;-145.46;74.51
76478;BME280;65309;49.790;18.972;2023-11-19T08:47:15;60222.06;;;-145.46;74.51
76478;BME280;65309;49.790;18.972;2023-11-19T08:52:18;60188.44;;;-145.46;74.79
76478;BME280;65309;49.790;18.972;2023-11-19T08:57:20;60209.47;;;-145.46;75.17
76478;BME280;65309;49.790;18.972;2023-11-19T09:02:24;60217.88;;;-145.46;73.86
76478;BME280;65309;49.790;18.972;2023-11-19T09:07:26;60209.47;;;-145.46;73.55
76478;BME280;65309;49.790;18.972;2023-11-19T09:12:28;60184.22;;;-145.46;75.90
76478;BME280;65309;49.790;18.972;2023-11-19T09:17:32;60184.22;;;-145.46;75.87
76478;BME280;65309;49.790;18.972;2023-11-19T09:22:34;60201.06;;;-145.46;76.86
76478;BME280;65309;49.790;18.972;2023-11-19T09:27:37;60213.66;;;-145.46;78.68
76478;BME280;65309;49.790;18.972;2023-11-19T09:32:40;60219.97;;;-145.46;79.69
76478;BME280;65309;49.790;18.972;2023-11-19T09:37:43;60211.56;;;-145.46;78.96
76478;BME280;65309;49.790;18.972;2023-11-19T09:42:45;60234.69;;;-145.46;79.29
76478;BME280;65309;49.790;18.972;2023-11-19T09:47:50;60180.03;;;-145.46;77.79
76478;BME280;65309;49.790;18.972;2023-11-19T09:52:55;60152.69;;;-145.46;80.28
76478;BME280;65309;49.790;18.972;2023-11-19T09:57:58;60154.81;;;-145.46;79.13
76478;BME280;65309;49.790;18.972;2023-11-19T10:03:05;60171.63;;;-145.46;77.59
76478;BME280;65309;49.790;18.972;2023-11-19T10:08:09;60205.25;;;-145.46;77.69
76478;BME280;65309;49.790;18.972;2023-11-19T10:13:13;60234.69;;;-145.46;74.27
76478;BME280;65309;49.790;18.972;2023-11-19T10:18:18;60236.78;;;-145.46;74.73
76478;BME280;65309;49.790;18.972;2023-11-19T10:23:21;60182.13;;;-145.46;77.69
76478;BME280;65309;49.790;18.972;2023-11-19T10:28:24;60159.00;;;-145.46;79.75
76478;BME280;65309;49.790;18.972;2023-11-19T10:33:29;60188.44;;;-145.46;80.66
76478;BME280;65309;49.790;18.972;2023-11-19T10:38:32;60203.16;;;-145.46;79.79
76478;BME280;65309;49.790;18.972;2023-11-19T10:43:43;60222.06;;;-145.46;79.54
76478;BME280;65309;49.790;18.972;2023-11-19T10:48:48;60222.06;;;-145.46;80.26
76478;BME280;65309;49.790;18.972;2023-11-19T10:53:51;60201.06;;;-145.46;82.68
76478;BME280;65309;49.790;18.972;2023-11-19T10:58:54;60182.13;;;-145.46;82.74
76478;BME280;65309;49.790;18.972;2023-11-19T11:04:02;60205.25;;;-145.46;84.73
76478;BME280;65309;49.790;18.972;2023-11-19T11:09:05;60222.06;;;-145.46;86.63
76478;BME280;65309;49.790;18.972;2023-11-19T11:14:09;60222.06;;;-145.46;86.41
76478;BME280;65309;49.790;18.972;2023-11-19T11:19:16;60205.25;;;-145.46;85.96
76478;BME280;65309;49.790;18.972;2023-11-19T11:30:14;60215.75;;;-145.46;85.86
76478;BME280;65309;49.790;18.972;2023-11-19T11:35:30;60184.22;;;-145.46;86.58
76478;BME280;65309;49.790;18.972;2023-11-19T11:40:38;60219.97;;;-145.46;85.80
76478;BME280;65309;49.790;18.972;2023-11-19T11:45:41;60194.75;;;-145.46;86.86
76478;BME280;65309;49.790;18.972;2023-11-19T11:50:56;60234.69;;;-145.46;85.93
76478;BME280;65309;49.790;18.972;2023-11-19T11:55:59;60175.81;;;-145.46;85.24
76478;BME280;65309;49.790;18.972;2023-11-19T12:01:03;60175.81;;;-145.46;84.59
76478;BME280;65309;49.790;18.972;2023-11-19T12:06:11;60201.06;;;-145.46;83.67
76478;BME280;65309;49.790;18.972;2023-11-19T12:11:13;60207.34;;;-145.46;83.89
76478;BME280;65309;49.790;18.972;2023-11-19T12:16:16;60196.84;;;-145.46;83.36
76478;BME280;65309;49.790;18.972;2023-11-19T12:21:29;60186.34;;;-145.46;82.74
76478;BME280;65309;49.790;18.972;2023-11-19T12:26:34;60201.06;;;-145.46;84.44
76478;BME280;65309;49.790;18.972;2023-11-19T12:31:36;60150.59;;;-145.46;85.17
76478;BME280;65309;49.790;18.972;2023-11-19T12:36:41;60219.97;;;-145.46;84.02
76478;BME280;65309;49.790;18.972;2023-11-19T12:41:51;60219.97;;;-145.46;84.15
76478;BME280;65309;49.790;18.972;2023-11-19T12:47:04;60209.47;;;-145.46;83.94
76478;BME280;65309;49.790;18.972;2023-11-19T12:52:15;60228.38;;;-145.46;85.52
76478;BME280;65309;49.790;18.972;2023-11-19T12:57:17;60226.28;;;-145.46;87.19
76478;BME280;65309;49.790;18.972;2023-11-19T13:02:21;60215.75;;;-145.46;88.63
76478;BME280;65309;49.790;18.972;2023-11-19T13:07:24;60217.88;;;-145.46;89.24
76478;BME280;65309;49.790;18.972;2023-11-19T13:12:26;60230.47;;;-145.46;90.67
76478;BME280;65309;49.790;18.972;2023-11-19T13:17:29;60251.50;;;-145.46;91.09
76478;BME280;65309;49.790;18.972;2023-11-19T13:22:33;60215.75;;;-145.46;90.74
76478;BME280;65309;49.790;18.972;2023-11-19T13:27:35;60226.28;;;-145.46;90.12
76478;BME280;65309;49.790;18.972;2023-11-19T13:32:37;60238.88;;;-145.46;88.62
76478;BME280;65309;49.790;18.972;2023-11-19T13:37:42;60238.88;;;-145.46;87.89
76478;BME280;65309;49.790;18.972;2023-11-19T13:42:45;60236.78;;;-145.46;86.43
76478;BME280;65309;49.790;18.972;2023-11-19T13:47:47;60243.09;;;-145.46;86.86
76478;BME280;65309;49.790;18.972;2023-11-19T13:52:51;60209.47;;;-145.46;86.88
76478;BME280;65309;49.790;18.972;2023-11-19T13:57:53;60209.47;;;-145.46;86.05
76478;BME280;65309;49.790;18.972;2023-11-19T14:02:56;60234.69;;;-145.46;86.38
76478;BME280;65309;49.790;18.972;2023-11-19T14:08:00;60192.63;;;-145.46;86.26
76478;BME280;65309;49.790;18.972;2023-11-19T14:13:04;60209.47;;;-145.46;86.51
76478;BME280;65309;49.790;18.972;2023-11-19T14:18:07;60236.78;;;-145.46;86.58
76478;BME280;65309;49.790;18.972;2023-11-19T14:23:11;60215.75;;;-145.46;86.74
76478;BME280;65309;49.790;18.972;2023-11-19T14:28:13;60226.28;;;-145.46;87.28
76478;BME280;65309;49.790;18.972;2023-11-19T14:33:16;60213.66;;;-145.46;87.36
76478;BME280;65309;49.790;18.972;2023-11-19T14:38:20;60230.47;;;-145.46;87.42
76478;BME280;65309;49.790;18.972;2023-11-19T14:43:22;60238.88;;;-145.46;87.20
76478;BME280;65309;49.790;18.972;2023-11-19T14:48:25;60230.47;;;-145.46;87.28
76478;BME280;65309;49.790;18.972;2023-11-19T14:53:29;60222.06;;;-145.46;87.45
76478;BME280;65309;49.790;18.972;2023-11-19T14:58:31;60226.28;;;-145.46;87.42
76478;BME280;65309;49.790;18.972;2023-11-19T15:03:33;60196.84;;;-145.46;86.35
76478;BME280;65309;49.790;18.972;2023-11-19T15:08:57;60238.88;;;-145.46;86.27
76478;BME280;65309;49.790;18.972;2023-11-19T15:13:59;60226.28;;;-145.46;85.87
76478;BME280;65309;49.790;18.972;2023-11-19T15:19:02;60201.06;;;-145.46;85.56
76478;BME280;65309;49.790;18.972;2023-11-19T15:24:09;60217.88;;;-145.46;84.99
76478;BME280;65309;49.790;18.972;2023-11-19T15:29:12;60186.34;;;-145.46;83.61
76478;BME280;65309;49.790;18.972;2023-11-19T15:34:15;60230.47;;;-145.46;83.36
76478;BME280;65309;49.790;18.972;2023-11-19T15:39:19;60234.69;;;-145.46;84.52
76478;BME280;65309;49.790;18.972;2023-11-19T15:44:23;60226.28;;;-145.46;85.54
76478;BME280;65309;49.790;18.972;2023-11-19T15:49:26;60184.22;;;-145.46;85.56
76478;BME280;65309;49.790;18.972;2023-11-19T15:54:30;60201.06;;;-145.46;86.05
76478;BME280;65309;49.790;18.972;2023-11-19T15:59:33;60213.66;;;-145.46;85.98
76478;BME280;65309;49.790;18.972;2023-11-19T16:04:35;60209.47;;;-145.46;86.56
76478;BME280;65309;49.790;18.972;2023-11-19T16:09:39;60201.06;;;-145.46;85.68
76478;BME280;65309;49.790;18.972;2023-11-19T16:14:41;60190.53;;;-145.46;85.21
76478;BME280;65309;49.790;18.972;2023-11-19T16:19:43;60228.38;;;-145.46;85.29
76478;BME280;65309;49.790;18.972;2023-11-19T16:24:48;60226.28;;;-145.46;85.03
76478;BME280;65309;49.790;18.972;2023-11-19T16:29:50;60238.88;;;-145.46;84.40
76478;BME280;65309;49.790;18.972;2023-11-19T16:34:53;60192.63;;;-145.46;84.19
76478;BME280;65309;49.790;18.972;2023-11-19T16:39:56;60238.88;;;-145.46;84.06
76478;BME280;65309;49.790;18.972;2023-11-19T16:44:58;60211.56;;;-145.46;84.14
76478;BME280;65309;49.790;18.972;2023-11-19T16:50:01;60224.19;;;-145.46;84.24
76478;BME280;65309;49.790;18.972;2023-11-19T16:55:07;60245.19;;;-145.46;85.28
76478;BME280;65309;49.790;18.972;2023-11-19T17:00:14;60213.66;;;-145.46;85.14
76478;BME280;65309;49.790;18.972;2023-11-19T17:05:16;60196.84;;;-145.46;85.89
76478;BME280;65309;49.790;18.972;2023-11-19T17:10:20;60201.06;;;-145.46;85.30
76478;BME280;65309;49.790;18.972;2023-11-19T17:15:22;60236.78;;;-145.46;84.83
76478;BME280;65309;49.790;18.972;2023-11-19T17:20:24;60213.66;;;-145.46;85.01
76478;BME280;65309;49.790;18.972;2023-11-19T17:25:28;60213.66;;;-145.46;84.99
76478;BME280;65309;49.790;18.972;2023-11-19T17:30:30;60211.56;;;-145.46;84.12
76478;BME280;65309;49.790;18.972;2023-11-19T17:35:33;60188.44;;;-145.46;84.01
76478;BME280;65309;49.790;18.972;2023-11-19T17:40:36;60184.22;;;-145.46;84.02
76478;BME280;65309;49.790;18.972;2023-11-19T17:45:38;60226.28;;;-145.46;83.56
76478;BME280;65309;49.790;18.972;2023-11-19T17:50:42;60247.31;;;-145.46;82.96
76478;BME280;65309;49.790;18.972;2023-11-19T17:55:46;60238.88;;;-145.46;83.21
76478;BME280;65309;49.790;18.972;2023-11-19T18:00:49;60251.50;;;-145.46;83.13
76478;BME280;65309;49.790;18.972;2023-11-19T18:05:51;60217.88;;;-145.46;82.69
76478;BME280;65309;49.790;18.972;2023-11-19T18:10:55;60222.06;;;-145.46;83.03
76478;BME280;65309;49.790;18.972;2023-11-19T18:15:57;60230.47;;;-145.46;84.32
76478;BME280;65309;49.790;18.972;2023-11-19T18:20:59;60203.16;;;-145.46;84.33
76478;BME280;65309;49.790;18.972;2023-11-19T18:26:03;60222.06;;;-145.46;83.87
76478;BME280;65309;49.790;18.972;2023-11-19T18:31:06;60238.88;;;-145.46;83.38
76478;BME280;65309;49.790;18.972;2023-11-19T18:36:10;60213.66;;;-145.46;83.96
76478;BME280;65309;49.790;18.972;2023-11-19T18:41:14;60228.38;;;-145.46;83.57
76478;BME280;65309;49.790;18.972;2023-11-19T18:46:16;60238.88;;;-145.46;83.36
76478;BME280;65309;49.790;18.972;2023-11-19T18:51:18;60209.47;;;-145.46;83.03
76478;BME280;65309;49.790;18.972;2023-11-19T18:56:22;60232.59;;;-145.46;83.01
76478;BME280;65309;49.790;18.972;2023-11-19T19:01:24;60209.47;;;-145.46;82.42
76478;BME280;65309;49.790;18.972;2023-11-19T19:06:28;60234.69;;;-145.46;81.99
76478;BME280;65309;49.790;18.972;2023-11-19T19:11:33;60205.25;;;-145.46;81.85
76478;BME280;65309;49.790;18.972;2023-11-19T19:16:35;60213.66;;;-145.46;81.11
76478;BME280;65309;49.790;18.972;2023-11-19T19:21:39;60175.81;;;-145.46;81.52
76478;BME280;65309;49.790;18.972;2023-11-19T19:26:42;60222.06;;;-145.46;82.02
76478;BME280;65309;49.790;18.972;2023-11-19T19:31:45;60274.63;;;-145.46;82.10
76478;BME280;65309;49.790;18.972;2023-11-19T19:36:47;60203.16;;;-145.46;81.76
76478;BME280;65309;49.790;18.972;2023-11-19T19:41:51;60215.75;;;-145.46;81.56
76478;BME280;65309;49.790;18.972;2023-11-19T19:46:53;60226.28;;;-145.46;81.80
76478;BME280;65309;49.790;18.972;2023-11-19T19:51:55;60211.56;;;-145.46;81.88
76478;BME280;65309;49.790;18.972;2023-11-19T19:56:59;60222.06;;;-145.46;81.52
76478;BME280;65309;49.790;18.972;2023-11-19T20:02:01;60213.66;;;-145.46;82.45
76478;BME280;65309;49.790;18.972;2023-11-19T20:07:04;60243.09;;;-145.46;83.26
76478;BME280;65309;49.790;18.972;2023-11-19T20:12:08;60236.78;;;-145.46;84.01
76478;BME280;65309;49.790;18.972;2023-11-19T20:17:10;60211.56;;;-145.46;84.71
76478;BME280;65309;49.790;18.972;2023-11-19T20:22:13;60232.59;;;-145.46;84.62
76478;BME280;65309;49.790;18.972;2023-11-19T20:27:17;60211.56;;;-145.46;84.91
76478;BME280;65309;49.790;18.972;2023-11-19T20:32:19;60205.25;;;-145.46;85.24
76478;BME280;65309;49.790;18.972;2023-11-19T20:37:21;60226.28;;;-145.46;85.37
76478;BME280;65309;49.790;18.972;2023-11-19T20:42:25;60201.06;;;-145.46;84.95
76478;BME280;65309;49.790;18.972;2023-11-19T20:47:27;60219.97;;;-145.46;84.31
76478;BME280;65309;49.790;18.972;2023-11-19T20:52:30;60224.19;;;-145.46;82.91
76478;BME280;65309;49.790;18.972;2023-11-19T20:57:33;60205.25;;;-145.46;83.02
76478;BME280;65309;49.790;18.972;2023-11-19T21:02:36;60241.00;;;-145.46;82.62
76478;BME280;65309;49.790;18.972;2023-11-19T21:07:38;60230.47;;;-145.46;82.11
76478;BME280;65309;49.790;18.972;2023-11-19T21:12:43;60180.03;;;-145.46;82.78
76478;BME280;65309;49.790;18.972;2023-11-19T21:17:46;60215.75;;;-145.46;83.17
76478;BME280;65309;49.790;18.972;2023-11-19T21:22:48;60222.06;;;-145.46;82.15
76478;BME280;65309;49.790;18.972;2023-11-19T21:27:52;60219.97;;;-145.46;82.86
76478;BME280;65309;49.790;18.972;2023-11-19T21:32:55;60236.78;;;-145.46;82.22
76478;BME280;65309;49.790;18.972;2023-11-19T21:37:57;60196.84;;;-145.46;81.76
76478;BME280;65309;49.790;18.972;2023-11-19T21:43:01;60251.50;;;-145.46;81.71
76478;BME280;65309;49.790;18.972;2023-11-19T21:48:03;60213.66;;;-145.46;81.21
76478;BME280;65309;49.790;18.972;2023-11-19T21:53:06;60201.06;;;-145.46;81.13
76478;BME280;65309;49.790;18.972;2023-11-19T21:58:10;60224.19;;;-145.46;81.23
76478;BME280;65309;49.790;18.972;2023-11-19T22:03:12;60238.88;;;-145.46;81.47
76478;BME280;65309;49.790;18.972;2023-11-19T22:08:14;60205.25;;;-145.46;81.60
76478;BME280;65309;49.790;18.972;2023-11-19T22:13:21;60207.34;;;-145.46;81.32
76478;BME280;65309;49.790;18.972;2023-11-19T22:18:24;60201.06;;;-145.46;81.82
76478;BME280;65309;49.790;18.972;2023-11-19T22:23:27;60219.97;;;-145.46;81.45
76478;BME280;65309;49.790;18.972;2023-11-19T22:28:31;60232.59;;;-145.46;81.20
76478;BME280;65309;49.790;18.972;2023-11-19T22:33:35;60201.06;;;-145.46;81.28
76478;BME280;65309;49.790;18.972;2023-11-19T22:38:37;60201.06;;;-145.46;81.59
76478;BME280;65309;49.790;18.972;2023-11-19T22:43:41;60222.06;;;-145.46;81.20
76478;BME280;65309;49.790;18.972;2023-11-19T22:48:43;60224.19;;;-145.46;81.41
76478;BME280;65309;49.790;18.972;2023-11-19T22:53:45;60213.66;;;-145.46;81.22
76478;BME280;65309;49.790;18.972;2023-11-19T22:58:49;60230.47;;;-145.46;81.15
76478;BME280;65309;49.790;18.972;2023-11-19T23:03:52;60238.88;;;-145.46;80.71
76478;BME280;65309;49.790;18.972;2023-11-19T23:08:55;60180.03;;;-145.46;80.47
76478;BME280;65309;49.790;18.972;2023-11-19T23:13:58;60213.66;;;-145.46;79.73
76478;BME280;65309;49.790;18.972;2023-11-19T23:19:01;60209.47;;;-145.46;80.82
76478;BME280;65309;49.790;18.972;2023-11-19T23:24:04;60205.25;;;-145.46;82.44
76478;BME280;65309;49.790;18.972;2023-11-19T23:29:07;60201.06;;;-145.46;82.78
76478;BME280;65309;49.790;18.972;2023-11-19T23:34:17;60234.69;;;-145.46;83.20
76478;BME280;65309;49.790;18.972;2023-11-19T23:39:19;60180.03;;;-145.46;83.61
76478;BME280;65309;49.790;18.972;2023-11-19T23:44:23;60196.84;;;-145.46;83.74
76478;BME280;65309;49.790;18.972;2023-11-19T23:49:25;60201.06;;;-145.46;82.68
76478;BME280;65309;49.790;18.972;2023-11-19T23:54:27;60205.25;;;-145.46;82.60
76478;BME280;65309;49.790;18.972;2023-11-19T23:59:31;60230.47;;;-145.46;83.83
